RJCB

Details ICAO RJCB (OBO)
Name OBIHIRO
Region Japan
Timezone Asia/Tokyo (UTC+9.0)
Plans Departing 9
Arriving 10
Stats Elevation 505 ft / 154 m (AMSL)
Location 42.733601° 143.217426°
Runways 1
Magnetic Variation 9.090° W
Sunrise 2018-05-22 18:59:19 UTC / 2018-05-23 03:59:19 Local
Sunset 2018-05-23 09:51:14 UTC / 2018-05-23 18:51:14 Local
Advertisement - Login to hide

Runways

ID Width Length Bearing (true) Bearing (mag) Surface Threshold Offset Overrun Length
17 150 ft / 46 m 8,209 ft / 2,502 m 159.37° 168.46° Asphalt 0 ft / 0 m 200 ft / 61 m
35 150 ft / 46 m 8,209 ft / 2,502 m 339.37° 348.46° Asphalt 0 ft / 0 m 200 ft / 61 m

Approach Navaids

Runway Type Ident Frequency Range Bearing (true) Bearing (mag) Slope Elevation
35 Localiser IOB 111.70 MHz 18 nm / 33 km 339.37° 348.46° - 505 ft / 154 m (AMSL)
35 Glidescope IOB 111.70 MHz 10 nm / 19 km 339.37° 348.46° 3.00° 505 ft / 154 m (AMSL)

Map

Weather


0- 5 10 15 20 25 30 35+ Temperature / ° C

Clouds and Precipitation
Forecast for 2018-05-22 12:00 UTC. Updated 5 hours ago

Ground ~20,000 ft ~40,000 ft Winds

METAR

Not found

TAF

TAF TAF RJCB 221107Z 2212/2318 16006KT 9999 FEW060

Frequencies

Tower 123.60 MHz TWR
Tower 118.70 MHz TWR
Tower 126.20 MHz TWR
Warning: Do not use this data for real-world aviation or navigation. No guarantee of current accuracy is given.